sensor_id;sensor_type;location;lat;lon;timestamp;P1;durP1;ratioP1;P2;durP2;ratioP2
75272;SDS011;63869;52.344;16.928;2022-11-30T00:01:53;52.15;;;22.40;;
75272;SDS011;63869;52.344;16.928;2022-11-30T00:04:18;54.65;;;21.35;;
75272;SDS011;63869;52.344;16.928;2022-11-30T00:06:44;48.50;;;21.13;;
75272;SDS011;63869;52.344;16.928;2022-11-30T00:09:09;52.20;;;21.75;;
75272;SDS011;63869;52.344;16.928;2022-11-30T00:11:35;51.78;;;20.35;;
75272;SDS011;63869;52.344;16.928;2022-11-30T00:14:00;48.67;;;21.00;;
75272;SDS011;63869;52.344;16.928;2022-11-30T00:16:25;42.50;;;18.70;;
75272;SDS011;63869;52.344;16.928;2022-11-30T00:18:51;31.25;;;12.77;;
75272;SDS011;63869;52.344;16.928;2022-11-30T00:21:16;40.25;;;16.92;;
75272;SDS011;63869;52.344;16.928;2022-11-30T00:23:43;42.35;;;18.15;;
75272;SDS011;63869;52.344;16.928;2022-11-30T00:26:11;50.35;;;19.35;;
75272;SDS011;63869;52.344;16.928;2022-11-30T00:28:41;52.13;;;20.73;;
75272;SDS011;63869;52.344;16.928;2022-11-30T00:31:10;50.05;;;21.60;;
75272;SDS011;63869;52.344;16.928;2022-11-30T00:33:37;45.58;;;20.35;;
75272;SDS011;63869;52.344;16.928;2022-11-30T00:36:04;49.50;;;21.20;;
75272;SDS011;63869;52.344;16.928;2022-11-30T00:38:51;49.80;;;21.05;;
75272;SDS011;63869;52.344;16.928;2022-11-30T00:41:17;51.63;;;20.27;;
75272;SDS011;63869;52.344;16.928;2022-11-30T00:43:43;47.88;;;20.30;;
75272;SDS011;63869;52.344;16.928;2022-11-30T00:46:08;51.47;;;20.70;;
75272;SDS011;63869;52.344;16.928;2022-11-30T00:48:34;54.05;;;20.48;;
75272;SDS011;63869;52.344;16.928;2022-11-30T00:51:00;51.53;;;21.08;;
75272;SDS011;63869;52.344;16.928;2022-11-30T00:53:25;53.45;;;21.65;;
75272;SDS011;63869;52.344;16.928;2022-11-30T00:55:51;53.38;;;21.50;;
75272;SDS011;63869;52.344;16.928;2022-11-30T00:58:16;60.30;;;22.25;;
75272;SDS011;63869;52.344;16.928;2022-11-30T01:00:42;55.08;;;21.45;;
75272;SDS011;63869;52.344;16.928;2022-11-30T01:03:08;49.90;;;20.20;;
75272;SDS011;63869;52.344;16.928;2022-11-30T01:05:34;50.35;;;19.98;;
75272;SDS011;63869;52.344;16.928;2022-11-30T01:08:00;58.63;;;21.98;;
75272;SDS011;63869;52.344;16.928;2022-11-30T01:10:29;56.70;;;21.13;;
75272;SDS011;63869;52.344;16.928;2022-11-30T01:12:54;53.65;;;21.70;;
75272;SDS011;63869;52.344;16.928;2022-11-30T01:15:20;53.53;;;22.08;;
75272;SDS011;63869;52.344;16.928;2022-11-30T01:17:45;56.60;;;21.95;;
75272;SDS011;63869;52.344;16.928;2022-11-30T01:20:11;59.38;;;22.92;;
75272;SDS011;63869;52.344;16.928;2022-11-30T01:22:36;53.75;;;21.83;;
75272;SDS011;63869;52.344;16.928;2022-11-30T01:25:02;54.88;;;20.85;;
75272;SDS011;63869;52.344;16.928;2022-11-30T01:27:28;57.40;;;20.88;;
75272;SDS011;63869;52.344;16.928;2022-11-30T01:29:53;53.83;;;21.70;;
75272;SDS011;63869;52.344;16.928;2022-11-30T01:32:18;54.72;;;21.00;;
75272;SDS011;63869;52.344;16.928;2022-11-30T01:34:44;54.22;;;21.27;;
75272;SDS011;63869;52.344;16.928;2022-11-30T01:37:09;59.60;;;22.48;;
75272;SDS011;63869;52.344;16.928;2022-11-30T01:39:34;55.50;;;22.25;;
75272;SDS011;63869;52.344;16.928;2022-11-30T01:41:59;58.03;;;23.27;;
75272;SDS011;63869;52.344;16.928;2022-11-30T01:49:52;59.85;;;23.52;;
75272;SDS011;63869;52.344;16.928;2022-11-30T01:52:28;57.35;;;24.13;;
75272;SDS011;63869;52.344;16.928;2022-11-30T01:57:56;61.38;;;22.42;;
75272;SDS011;63869;52.344;16.928;2022-11-30T02:00:22;58.92;;;23.17;;
75272;SDS011;63869;52.344;16.928;2022-11-30T02:05:24;59.95;;;23.27;;
75272;SDS011;63869;52.344;16.928;2022-11-30T02:07:50;62.08;;;24.58;;
75272;SDS011;63869;52.344;16.928;2022-11-30T02:10:18;60.33;;;23.77;;
75272;SDS011;63869;52.344;16.928;2022-11-30T02:15:38;61.20;;;24.08;;
75272;SDS011;63869;52.344;16.928;2022-11-30T02:18:21;56.10;;;23.02;;
75272;SDS011;63869;52.344;16.928;2022-11-30T02:20:58;70.72;;;24.90;;
75272;SDS011;63869;52.344;16.928;2022-11-30T02:29:03;61.47;;;23.77;;
75272;SDS011;63869;52.344;16.928;2022-11-30T02:32:05;69.80;;;24.52;;
75272;SDS011;63869;52.344;16.928;2022-11-30T02:34:32;78.70;;;26.85;;
75272;SDS011;63869;52.344;16.928;2022-11-30T02:37:00;71.30;;;26.05;;
75272;SDS011;63869;52.344;16.928;2022-11-30T02:39:27;73.90;;;26.88;;
75272;SDS011;63869;52.344;16.928;2022-11-30T02:41:52;68.07;;;26.85;;
75272;SDS011;63869;52.344;16.928;2022-11-30T02:44:17;68.50;;;26.95;;
75272;SDS011;63869;52.344;16.928;2022-11-30T02:46:52;70.35;;;26.83;;
75272;SDS011;63869;52.344;16.928;2022-11-30T02:52:09;64.22;;;24.20;;
75272;SDS011;63869;52.344;16.928;2022-11-30T02:54:36;66.97;;;24.65;;
75272;SDS011;63869;52.344;16.928;2022-11-30T02:57:02;67.28;;;25.00;;
75272;SDS011;63869;52.344;16.928;2022-11-30T02:59:27;61.60;;;23.35;;
75272;SDS011;63869;52.344;16.928;2022-11-30T03:01:53;65.32;;;22.10;;
75272;SDS011;63869;52.344;16.928;2022-11-30T03:04:18;65.25;;;22.58;;
75272;SDS011;63869;52.344;16.928;2022-11-30T03:06:43;56.75;;;22.80;;
75272;SDS011;63869;52.344;16.928;2022-11-30T03:09:08;58.50;;;22.10;;
75272;SDS011;63869;52.344;16.928;2022-11-30T03:11:34;58.20;;;21.65;;
75272;SDS011;63869;52.344;16.928;2022-11-30T03:13:59;60.15;;;23.08;;
75272;SDS011;63869;52.344;16.928;2022-11-30T03:16:24;63.83;;;23.08;;
75272;SDS011;63869;52.344;16.928;2022-11-30T03:18:50;70.63;;;24.33;;
75272;SDS011;63869;52.344;16.928;2022-11-30T03:21:15;68.22;;;25.00;;
75272;SDS011;63869;52.344;16.928;2022-11-30T03:23:40;62.35;;;24.13;;
75272;SDS011;63869;52.344;16.928;2022-11-30T03:26:06;62.75;;;23.42;;
75272;SDS011;63869;52.344;16.928;2022-11-30T03:28:32;67.72;;;23.88;;
75272;SDS011;63869;52.344;16.928;2022-11-30T03:30:58;68.88;;;23.58;;
75272;SDS011;63869;52.344;16.928;2022-11-30T03:33:23;63.75;;;22.42;;
75272;SDS011;63869;52.344;16.928;2022-11-30T03:35:57;59.22;;;22.75;;
75272;SDS011;63869;52.344;16.928;2022-11-30T03:38:24;66.45;;;24.13;;
75272;SDS011;63869;52.344;16.928;2022-11-30T03:40:49;65.13;;;22.70;;
75272;SDS011;63869;52.344;16.928;2022-11-30T03:43:14;65.43;;;22.65;;
75272;SDS011;63869;52.344;16.928;2022-11-30T03:45:43;68.15;;;23.67;;
75272;SDS011;63869;52.344;16.928;2022-11-30T03:48:09;62.95;;;23.25;;
75272;SDS011;63869;52.344;16.928;2022-11-30T03:50:34;56.80;;;22.00;;
75272;SDS011;63869;52.344;16.928;2022-11-30T03:52:59;55.85;;;21.10;;
75272;SDS011;63869;52.344;16.928;2022-11-30T03:55:25;59.10;;;22.23;;
75272;SDS011;63869;52.344;16.928;2022-11-30T03:57:50;56.47;;;22.00;;
75272;SDS011;63869;52.344;16.928;2022-11-30T04:00:16;58.05;;;22.13;;
75272;SDS011;63869;52.344;16.928;2022-11-30T04:02:42;66.57;;;23.30;;
75272;SDS011;63869;52.344;16.928;2022-11-30T04:05:07;59.95;;;22.17;;
75272;SDS011;63869;52.344;16.928;2022-11-30T04:07:33;58.50;;;22.40;;
75272;SDS011;63869;52.344;16.928;2022-11-30T04:09:58;53.75;;;21.10;;
75272;SDS011;63869;52.344;16.928;2022-11-30T04:12:23;56.70;;;21.17;;
75272;SDS011;63869;52.344;16.928;2022-11-30T04:14:49;57.42;;;21.67;;
75272;SDS011;63869;52.344;16.928;2022-11-30T04:17:14;56.47;;;21.48;;
75272;SDS011;63869;52.344;16.928;2022-11-30T04:19:39;54.53;;;19.88;;
75272;SDS011;63869;52.344;16.928;2022-11-30T04:22:04;52.30;;;21.75;;
75272;SDS011;63869;52.344;16.928;2022-11-30T04:24:30;54.83;;;21.60;;
75272;SDS011;63869;52.344;16.928;2022-11-30T04:26:55;60.53;;;21.50;;
75272;SDS011;63869;52.344;16.928;2022-11-30T04:29:20;54.30;;;21.67;;
75272;SDS011;63869;52.344;16.928;2022-11-30T04:31:46;54.40;;;20.73;;
75272;SDS011;63869;52.344;16.928;2022-11-30T04:34:11;53.17;;;20.13;;
75272;SDS011;63869;52.344;16.928;2022-11-30T04:36:36;50.90;;;19.63;;
75272;SDS011;63869;52.344;16.928;2022-11-30T04:39:01;55.95;;;19.67;;
75272;SDS011;63869;52.344;16.928;2022-11-30T04:41:27;53.55;;;20.30;;
75272;SDS011;63869;52.344;16.928;2022-11-30T04:43:52;49.95;;;19.30;;
75272;SDS011;63869;52.344;16.928;2022-11-30T04:46:17;50.15;;;19.85;;
75272;SDS011;63869;52.344;16.928;2022-11-30T04:48:43;46.47;;;18.92;;
75272;SDS011;63869;52.344;16.928;2022-11-30T04:51:08;46.42;;;19.15;;
75272;SDS011;63869;52.344;16.928;2022-11-30T04:53:34;47.42;;;19.40;;
75272;SDS011;63869;52.344;16.928;2022-11-30T04:56:07;47.95;;;18.25;;
75272;SDS011;63869;52.344;16.928;2022-11-30T04:58:34;47.22;;;18.42;;
75272;SDS011;63869;52.344;16.928;2022-11-30T05:00:59;46.65;;;18.52;;
75272;SDS011;63869;52.344;16.928;2022-11-30T05:03:25;47.97;;;18.08;;
75272;SDS011;63869;52.344;16.928;2022-11-30T05:05:50;45.05;;;17.70;;
75272;SDS011;63869;52.344;16.928;2022-11-30T05:08:16;48.95;;;17.95;;
75272;SDS011;63869;52.344;16.928;2022-11-30T05:10:41;46.38;;;18.10;;
75272;SDS011;63869;52.344;16.928;2022-11-30T05:13:06;47.92;;;17.42;;
75272;SDS011;63869;52.344;16.928;2022-11-30T05:15:32;43.38;;;17.20;;
75272;SDS011;63869;52.344;16.928;2022-11-30T05:17:58;42.03;;;17.35;;
75272;SDS011;63869;52.344;16.928;2022-11-30T05:20:24;42.35;;;16.83;;
75272;SDS011;63869;52.344;16.928;2022-11-30T05:22:49;42.08;;;16.95;;
75272;SDS011;63869;52.344;16.928;2022-11-30T05:25:14;38.10;;;16.42;;
75272;SDS011;63869;52.344;16.928;2022-11-30T05:27:40;30.88;;;12.13;;
75272;SDS011;63869;52.344;16.928;2022-11-30T05:30:05;28.17;;;11.15;;
75272;SDS011;63869;52.344;16.928;2022-11-30T05:32:31;28.02;;;10.43;;
75272;SDS011;63869;52.344;16.928;2022-11-30T05:34:57;30.70;;;13.32;;
75272;SDS011;63869;52.344;16.928;2022-11-30T05:37:22;34.33;;;13.02;;
75272;SDS011;63869;52.344;16.928;2022-11-30T05:39:48;42.35;;;16.55;;
75272;SDS011;63869;52.344;16.928;2022-11-30T05:42:13;45.45;;;17.20;;
75272;SDS011;63869;52.344;16.928;2022-11-30T05:44:38;47.95;;;17.85;;
75272;SDS011;63869;52.344;16.928;2022-11-30T05:47:04;48.70;;;18.17;;
75272;SDS011;63869;52.344;16.928;2022-11-30T05:49:29;46.05;;;17.15;;
75272;SDS011;63869;52.344;16.928;2022-11-30T05:51:54;49.60;;;18.80;;
75272;SDS011;63869;52.344;16.928;2022-11-30T05:54:19;51.85;;;19.08;;
75272;SDS011;63869;52.344;16.928;2022-11-30T05:56:45;42.47;;;18.10;;
75272;SDS011;63869;52.344;16.928;2022-11-30T05:59:10;51.85;;;19.15;;
75272;SDS011;63869;52.344;16.928;2022-11-30T06:01:35;47.03;;;17.65;;
75272;SDS011;63869;52.344;16.928;2022-11-30T06:04:03;39.47;;;16.60;;
75272;SDS011;63869;52.344;16.928;2022-11-30T06:06:29;44.55;;;18.10;;
75272;SDS011;63869;52.344;16.928;2022-11-30T06:08:54;44.88;;;19.05;;
75272;SDS011;63869;52.344;16.928;2022-11-30T06:11:19;47.58;;;18.23;;
75272;SDS011;63869;52.344;16.928;2022-11-30T06:13:44;49.83;;;18.80;;
75272;SDS011;63869;52.344;16.928;2022-11-30T06:16:10;51.55;;;18.98;;
75272;SDS011;63869;52.344;16.928;2022-11-30T06:18:36;48.90;;;18.38;;
75272;SDS011;63869;52.344;16.928;2022-11-30T06:21:02;49.55;;;20.33;;
75272;SDS011;63869;52.344;16.928;2022-11-30T06:23:32;50.33;;;19.45;;
75272;SDS011;63869;52.344;16.928;2022-11-30T06:26:01;53.13;;;19.75;;
75272;SDS011;63869;52.344;16.928;2022-11-30T06:28:27;57.10;;;20.05;;
75272;SDS011;63869;52.344;16.928;2022-11-30T06:30:56;52.42;;;19.85;;
75272;SDS011;63869;52.344;16.928;2022-11-30T06:33:22;48.85;;;19.73;;
75272;SDS011;63869;52.344;16.928;2022-11-30T06:35:47;51.42;;;19.67;;
75272;SDS011;63869;52.344;16.928;2022-11-30T06:38:13;53.03;;;19.25;;
75272;SDS011;63869;52.344;16.928;2022-11-30T06:40:38;56.75;;;20.70;;
75272;SDS011;63869;52.344;16.928;2022-11-30T06:43:04;61.40;;;21.70;;
75272;SDS011;63869;52.344;16.928;2022-11-30T06:45:29;53.80;;;19.63;;
75272;SDS011;63869;52.344;16.928;2022-11-30T06:47:55;55.08;;;20.70;;
75272;SDS011;63869;52.344;16.928;2022-11-30T06:50:21;58.75;;;21.17;;
75272;SDS011;63869;52.344;16.928;2022-11-30T06:52:46;60.53;;;20.95;;
75272;SDS011;63869;52.344;16.928;2022-11-30T06:55:11;57.33;;;21.05;;
75272;SDS011;63869;52.344;16.928;2022-11-30T06:57:37;54.65;;;19.02;;
75272;SDS011;63869;52.344;16.928;2022-11-30T07:00:03;58.17;;;19.85;;
75272;SDS011;63869;52.344;16.928;2022-11-30T07:02:29;55.08;;;19.92;;
75272;SDS011;63869;52.344;16.928;2022-11-30T07:04:54;56.25;;;20.90;;
75272;SDS011;63869;52.344;16.928;2022-11-30T07:07:19;61.83;;;21.23;;
75272;SDS011;63869;52.344;16.928;2022-11-30T07:09:45;54.35;;;19.23;;
75272;SDS011;63869;52.344;16.928;2022-11-30T07:12:10;63.00;;;21.40;;
75272;SDS011;63869;52.344;16.928;2022-11-30T07:14:35;58.92;;;20.35;;
75272;SDS011;63869;52.344;16.928;2022-11-30T07:17:01;70.50;;;22.10;;
75272;SDS011;63869;52.344;16.928;2022-11-30T07:19:29;61.75;;;20.92;;
75272;SDS011;63869;52.344;16.928;2022-11-30T07:21:56;59.88;;;20.35;;
75272;SDS011;63869;52.344;16.928;2022-11-30T07:24:21;62.72;;;20.80;;
75272;SDS011;63869;52.344;16.928;2022-11-30T07:27:05;58.65;;;19.77;;
75272;SDS011;63869;52.344;16.928;2022-11-30T07:29:31;58.90;;;20.10;;
75272;SDS011;63869;52.344;16.928;2022-11-30T07:31:56;64.25;;;20.75;;
75272;SDS011;63869;52.344;16.928;2022-11-30T07:34:21;61.63;;;21.60;;
75272;SDS011;63869;52.344;16.928;2022-11-30T07:36:47;63.60;;;21.15;;
75272;SDS011;63869;52.344;16.928;2022-11-30T07:39:13;61.83;;;20.77;;
75272;SDS011;63869;52.344;16.928;2022-11-30T07:41:38;66.93;;;22.23;;
75272;SDS011;63869;52.344;16.928;2022-11-30T07:44:04;60.80;;;22.10;;
75272;SDS011;63869;52.344;16.928;2022-11-30T07:46:30;64.35;;;21.75;;
75272;SDS011;63869;52.344;16.928;2022-11-30T07:48:57;64.80;;;20.73;;
75272;SDS011;63869;52.344;16.928;2022-11-30T07:51:22;61.00;;;21.38;;
75272;SDS011;63869;52.344;16.928;2022-11-30T07:53:48;59.95;;;20.25;;
75272;SDS011;63869;52.344;16.928;2022-11-30T07:56:14;58.92;;;20.77;;
75272;SDS011;63869;52.344;16.928;2022-11-30T07:58:41;58.92;;;19.70;;
75272;SDS011;63869;52.344;16.928;2022-11-30T08:01:08;60.40;;;19.48;;
75272;SDS011;63869;52.344;16.928;2022-11-30T08:03:45;63.03;;;21.50;;
75272;SDS011;63869;52.344;16.928;2022-11-30T08:06:12;65.95;;;21.63;;
75272;SDS011;63869;52.344;16.928;2022-11-30T08:08:40;57.95;;;20.20;;
75272;SDS011;63869;52.344;16.928;2022-11-30T08:11:07;63.92;;;21.55;;
75272;SDS011;63869;52.344;16.928;2022-11-30T08:13:34;63.08;;;20.67;;
75272;SDS011;63869;52.344;16.928;2022-11-30T08:16:00;66.18;;;20.17;;
75272;SDS011;63869;52.344;16.928;2022-11-30T08:18:26;55.28;;;18.95;;
75272;SDS011;63869;52.344;16.928;2022-11-30T08:20:58;63.20;;;20.48;;
75272;SDS011;63869;52.344;16.928;2022-11-30T08:23:29;52.35;;;17.98;;
75272;SDS011;63869;52.344;16.928;2022-11-30T08:25:55;55.47;;;19.65;;
75272;SDS011;63869;52.344;16.928;2022-11-30T08:28:20;56.47;;;19.48;;
75272;SDS011;63869;52.344;16.928;2022-11-30T08:30:46;57.13;;;19.77;;
75272;SDS011;63869;52.344;16.928;2022-11-30T08:33:12;60.42;;;18.70;;
75272;SDS011;63869;52.344;16.928;2022-11-30T08:35:37;59.53;;;19.42;;
75272;SDS011;63869;52.344;16.928;2022-11-30T08:38:03;61.13;;;18.67;;
75272;SDS011;63869;52.344;16.928;2022-11-30T08:40:28;62.05;;;20.15;;
75272;SDS011;63869;52.344;16.928;2022-11-30T08:42:53;58.78;;;20.80;;
75272;SDS011;63869;52.344;16.928;2022-11-30T08:45:18;62.22;;;20.92;;
75272;SDS011;63869;52.344;16.928;2022-11-30T08:47:44;56.13;;;18.85;;
75272;SDS011;63869;52.344;16.928;2022-11-30T08:50:09;56.05;;;18.05;;
75272;SDS011;63869;52.344;16.928;2022-11-30T08:52:34;57.40;;;19.85;;
75272;SDS011;63869;52.344;16.928;2022-11-30T08:55:00;59.33;;;19.95;;
75272;SDS011;63869;52.344;16.928;2022-11-30T08:57:25;53.78;;;18.45;;
75272;SDS011;63869;52.344;16.928;2022-11-30T08:59:51;51.90;;;18.45;;
75272;SDS011;63869;52.344;16.928;2022-11-30T09:02:16;53.92;;;19.17;;
75272;SDS011;63869;52.344;16.928;2022-11-30T09:04:43;52.20;;;18.65;;
75272;SDS011;63869;52.344;16.928;2022-11-30T09:07:09;54.78;;;17.42;;
75272;SDS011;63869;52.344;16.928;2022-11-30T09:09:35;49.60;;;17.33;;
75272;SDS011;63869;52.344;16.928;2022-11-30T09:12:01;52.88;;;18.95;;
75272;SDS011;63869;52.344;16.928;2022-11-30T09:14:26;55.25;;;20.10;;
75272;SDS011;63869;52.344;16.928;2022-11-30T09:16:52;49.45;;;18.60;;
75272;SDS011;63869;52.344;16.928;2022-11-30T09:19:18;52.50;;;17.98;;
75272;SDS011;63869;52.344;16.928;2022-11-30T09:21:44;63.63;;;18.83;;
75272;SDS011;63869;52.344;16.928;2022-11-30T09:24:09;54.50;;;18.40;;
75272;SDS011;63869;52.344;16.928;2022-11-30T09:26:35;51.22;;;18.27;;
75272;SDS011;63869;52.344;16.928;2022-11-30T09:29:01;56.30;;;18.35;;
75272;SDS011;63869;52.344;16.928;2022-11-30T09:31:27;47.78;;;17.63;;
75272;SDS011;63869;52.344;16.928;2022-11-30T09:33:53;54.20;;;18.55;;
75272;SDS011;63869;52.344;16.928;2022-11-30T09:36:21;55.58;;;19.35;;
75272;SDS011;63869;52.344;16.928;2022-11-30T09:38:48;51.00;;;17.77;;
75272;SDS011;63869;52.344;16.928;2022-11-30T09:41:20;49.05;;;18.35;;
75272;SDS011;63869;52.344;16.928;2022-11-30T09:44:23;53.25;;;19.00;;
75272;SDS011;63869;52.344;16.928;2022-11-30T09:49:53;57.83;;;18.13;;
75272;SDS011;63869;52.344;16.928;2022-11-30T09:52:38;57.13;;;18.48;;
75272;SDS011;63869;52.344;16.928;2022-11-30T09:55:07;61.05;;;18.25;;
75272;SDS011;63869;52.344;16.928;2022-11-30T09:57:47;54.45;;;19.05;;
75272;SDS011;63869;52.344;16.928;2022-11-30T10:00:17;55.67;;;19.85;;
75272;SDS011;63869;52.344;16.928;2022-11-30T10:02:45;60.28;;;18.90;;
75272;SDS011;63869;52.344;16.928;2022-11-30T10:05:16;50.63;;;17.77;;
75272;SDS011;63869;52.344;16.928;2022-11-30T10:10:39;57.53;;;19.80;;
75272;SDS011;63869;52.344;16.928;2022-11-30T10:16:14;52.47;;;19.35;;
75272;SDS011;63869;52.344;16.928;2022-11-30T10:19:15;50.78;;;18.83;;
75272;SDS011;63869;52.344;16.928;2022-11-30T10:22:09;52.03;;;18.83;;
75272;SDS011;63869;52.344;16.928;2022-11-30T10:27:17;58.58;;;19.20;;
75272;SDS011;63869;52.344;16.928;2022-11-30T10:30:17;55.28;;;19.08;;
75272;SDS011;63869;52.344;16.928;2022-11-30T10:32:51;50.88;;;19.40;;
75272;SDS011;63869;52.344;16.928;2022-11-30T10:35:20;48.08;;;18.83;;
75272;SDS011;63869;52.344;16.928;2022-11-30T10:37:57;57.42;;;18.27;;
75272;SDS011;63869;52.344;16.928;2022-11-30T10:40:36;53.88;;;18.30;;
75272;SDS011;63869;52.344;16.928;2022-11-30T10:43:16;53.00;;;19.60;;
75272;SDS011;63869;52.344;16.928;2022-11-30T10:45:47;56.63;;;18.27;;
75272;SDS011;63869;52.344;16.928;2022-11-30T10:48:15;53.83;;;18.80;;
75272;SDS011;63869;52.344;16.928;2022-11-30T10:50:45;55.22;;;18.23;;
75272;SDS011;63869;52.344;16.928;2022-11-30T10:53:11;57.80;;;19.48;;
75272;SDS011;63869;52.344;16.928;2022-11-30T10:55:39;58.08;;;18.27;;
75272;SDS011;63869;52.344;16.928;2022-11-30T11:00:49;50.65;;;18.13;;
75272;SDS011;63869;52.344;16.928;2022-11-30T11:03:25;50.78;;;18.30;;
75272;SDS011;63869;52.344;16.928;2022-11-30T11:08:47;51.65;;;17.58;;
75272;SDS011;63869;52.344;16.928;2022-11-30T11:16:53;56.47;;;19.67;;
75272;SDS011;63869;52.344;16.928;2022-11-30T11:22:26;47.78;;;17.08;;
75272;SDS011;63869;52.344;16.928;2022-11-30T11:25:05;51.03;;;17.20;;
75272;SDS011;63869;52.344;16.928;2022-11-30T11:27:35;55.67;;;17.75;;
75272;SDS011;63869;52.344;16.928;2022-11-30T11:30:21;57.72;;;18.92;;
75272;SDS011;63869;52.344;16.928;2022-11-30T11:32:56;53.40;;;18.15;;
75272;SDS011;63869;52.344;16.928;2022-11-30T11:38:26;51.70;;;17.65;;
75272;SDS011;63869;52.344;16.928;2022-11-30T11:40:58;50.67;;;17.65;;
75272;SDS011;63869;52.344;16.928;2022-11-30T11:43:27;52.25;;;18.92;;
75272;SDS011;63869;52.344;16.928;2022-11-30T11:45:55;43.60;;;17.85;;
75272;SDS011;63869;52.344;16.928;2022-11-30T11:51:03;47.90;;;16.95;;
75272;SDS011;63869;52.344;16.928;2022-11-30T11:53:35;57.17;;;20.13;;
75272;SDS011;63869;52.344;16.928;2022-11-30T12:04:44;57.20;;;17.55;;
75272;SDS011;63869;52.344;16.928;2022-11-30T12:10:16;48.20;;;16.85;;
75272;SDS011;63869;52.344;16.928;2022-11-30T12:12:53;49.72;;;17.42;;
75272;SDS011;63869;52.344;16.928;2022-11-30T12:15:21;53.08;;;17.10;;
75272;SDS011;63869;52.344;16.928;2022-11-30T12:17:59;52.78;;;16.98;;
75272;SDS011;63869;52.344;16.928;2022-11-30T12:23:21;59.78;;;17.50;;
75272;SDS011;63869;52.344;16.928;2022-11-30T12:25:53;47.45;;;16.38;;
75272;SDS011;63869;52.344;16.928;2022-11-30T12:28:36;54.45;;;16.67;;
75272;SDS011;63869;52.344;16.928;2022-11-30T12:58:29;53.35;;;17.35;;
75272;SDS011;63869;52.344;16.928;2022-11-30T13:06:53;63.92;;;18.98;;
75272;SDS011;63869;52.344;16.928;2022-11-30T13:09:33;51.72;;;16.95;;
75272;SDS011;63869;52.344;16.928;2022-11-30T13:12:02;51.88;;;17.92;;
75272;SDS011;63869;52.344;16.928;2022-11-30T13:14:35;54.53;;;17.50;;
75272;SDS011;63869;52.344;16.928;2022-11-30T13:17:05;53.17;;;18.40;;
75272;SDS011;63869;52.344;16.928;2022-11-30T13:19:55;56.67;;;19.05;;
75272;SDS011;63869;52.344;16.928;2022-11-30T13:28:06;47.35;;;16.98;;
75272;SDS011;63869;52.344;16.928;2022-11-30T13:35:58;54.22;;;18.45;;
75272;SDS011;63869;52.344;16.928;2022-11-30T13:38:27;49.03;;;15.88;;
75272;SDS011;63869;52.344;16.928;2022-11-30T13:40:54;52.08;;;16.83;;
75272;SDS011;63869;52.344;16.928;2022-11-30T13:43:19;53.22;;;16.77;;
75272;SDS011;63869;52.344;16.928;2022-11-30T13:45:45;59.63;;;17.23;;
75272;SDS011;63869;52.344;16.928;2022-11-30T13:48:16;44.85;;;16.58;;
75272;SDS011;63869;52.344;16.928;2022-11-30T13:50:45;46.83;;;16.08;;
75272;SDS011;63869;52.344;16.928;2022-11-30T13:53:20;55.72;;;17.95;;
75272;SDS011;63869;52.344;16.928;2022-11-30T13:55:51;47.88;;;17.95;;
75272;SDS011;63869;52.344;16.928;2022-11-30T13:58:18;47.72;;;16.35;;
75272;SDS011;63869;52.344;16.928;2022-11-30T14:03:25;50.30;;;16.60;;
75272;SDS011;63869;52.344;16.928;2022-11-30T14:05:57;47.30;;;17.42;;
75272;SDS011;63869;52.344;16.928;2022-11-30T14:08:32;56.50;;;17.60;;
75272;SDS011;63869;52.344;16.928;2022-11-30T14:17:15;52.78;;;16.08;;
75272;SDS011;63869;52.344;16.928;2022-11-30T14:19:46;47.05;;;16.05;;
75272;SDS011;63869;52.344;16.928;2022-11-30T14:22:14;52.50;;;16.60;;
75272;SDS011;63869;52.344;16.928;2022-11-30T14:24:41;46.53;;;16.17;;
75272;SDS011;63869;52.344;16.928;2022-11-30T14:27:20;63.58;;;20.52;;
75272;SDS011;63869;52.344;16.928;2022-11-30T14:29:48;55.83;;;16.85;;
75272;SDS011;63869;52.344;16.928;2022-11-30T14:34:52;51.85;;;17.27;;
75272;SDS011;63869;52.344;16.928;2022-11-30T14:37:39;50.35;;;16.60;;
75272;SDS011;63869;52.344;16.928;2022-11-30T14:42:44;59.00;;;18.67;;
75272;SDS011;63869;52.344;16.928;2022-11-30T14:45:22;58.65;;;18.65;;
75272;SDS011;63869;52.344;16.928;2022-11-30T14:47:51;52.30;;;16.52;;
75272;SDS011;63869;52.344;16.928;2022-11-30T14:50:20;56.97;;;19.17;;
75272;SDS011;63869;52.344;16.928;2022-11-30T14:55:50;48.80;;;17.27;;
75272;SDS011;63869;52.344;16.928;2022-11-30T14:58:36;47.92;;;16.48;;
75272;SDS011;63869;52.344;16.928;2022-11-30T15:01:13;62.47;;;17.85;;
75272;SDS011;63869;52.344;16.928;2022-11-30T15:03:44;54.58;;;17.23;;
75272;SDS011;63869;52.344;16.928;2022-11-30T15:06:18;50.17;;;17.20;;
75272;SDS011;63869;52.344;16.928;2022-11-30T15:08:48;49.67;;;16.52;;
75272;SDS011;63869;52.344;16.928;2022-11-30T15:11:16;49.83;;;16.75;;
75272;SDS011;63869;52.344;16.928;2022-11-30T15:13:44;53.83;;;18.88;;
75272;SDS011;63869;52.344;16.928;2022-11-30T15:16:16;46.72;;;15.88;;
75272;SDS011;63869;52.344;16.928;2022-11-30T15:18:44;61.45;;;19.20;;
75272;SDS011;63869;52.344;16.928;2022-11-30T15:21:11;52.75;;;17.27;;
75272;SDS011;63869;52.344;16.928;2022-11-30T15:23:41;51.15;;;17.25;;
75272;SDS011;63869;52.344;16.928;2022-11-30T15:26:14;49.30;;;16.85;;
75272;SDS011;63869;52.344;16.928;2022-11-30T15:31:22;47.72;;;17.58;;
75272;SDS011;63869;52.344;16.928;2022-11-30T15:33:48;52.95;;;17.58;;
75272;SDS011;63869;52.344;16.928;2022-11-30T15:36:14;47.45;;;17.00;;
75272;SDS011;63869;52.344;16.928;2022-11-30T15:38:40;50.28;;;17.23;;
75272;SDS011;63869;52.344;16.928;2022-11-30T15:41:12;51.30;;;17.20;;
75272;SDS011;63869;52.344;16.928;2022-11-30T15:43:49;54.95;;;18.92;;
75272;SDS011;63869;52.344;16.928;2022-11-30T15:46:30;65.30;;;22.65;;
75272;SDS011;63869;52.344;16.928;2022-11-30T15:51:40;52.30;;;19.90;;
75272;SDS011;63869;52.344;16.928;2022-11-30T15:54:08;61.75;;;22.85;;
75272;SDS011;63869;52.344;16.928;2022-11-30T15:56:33;47.92;;;17.95;;
75272;SDS011;63869;52.344;16.928;2022-11-30T16:01:57;45.47;;;16.27;;
75272;SDS011;63869;52.344;16.928;2022-11-30T16:07:20;49.67;;;17.17;;
75272;SDS011;63869;52.344;16.928;2022-11-30T16:09:48;57.95;;;16.77;;
75272;SDS011;63869;52.344;16.928;2022-11-30T16:12:16;56.42;;;18.98;;
75272;SDS011;63869;52.344;16.928;2022-11-30T16:14:51;54.22;;;18.17;;
75272;SDS011;63869;52.344;16.928;2022-11-30T16:17:16;46.97;;;17.63;;
75272;SDS011;63869;52.344;16.928;2022-11-30T16:19:41;56.28;;;18.48;;
75272;SDS011;63869;52.344;16.928;2022-11-30T16:22:08;55.15;;;18.42;;
75272;SDS011;63869;52.344;16.928;2022-11-30T16:24:35;48.67;;;16.15;;
75272;SDS011;63869;52.344;16.928;2022-11-30T16:27:01;49.75;;;18.17;;
75272;SDS011;63869;52.344;16.928;2022-11-30T16:29:38;55.00;;;18.25;;
75272;SDS011;63869;52.344;16.928;2022-11-30T16:32:04;52.17;;;18.23;;
75272;SDS011;63869;52.344;16.928;2022-11-30T16:34:29;41.88;;;16.13;;
75272;SDS011;63869;52.344;16.928;2022-11-30T16:36:54;43.70;;;17.60;;